createdAt,value
2022-08-26T00:01:56.576Z,100491.25
2022-08-26T00:04:25.915Z,100493.66
2022-08-26T00:06:55.626Z,100488.88
2022-08-26T00:09:25.399Z,100491.25
2022-08-26T00:11:54.653Z,100486.47
2022-08-26T00:14:27.183Z,100489.66
2022-08-26T00:16:57.995Z,100486.06
2022-08-26T00:19:26.187Z,100482.06
2022-08-26T00:21:54.546Z,100484.44
2022-08-26T00:24:23.988Z,100481.59
2022-08-26T00:26:51.892Z,100482.41
2022-08-26T00:29:21.312Z,100482.34
2022-08-26T00:31:49.661Z,100480.41
2022-08-26T00:34:19.322Z,100478.41
2022-08-26T00:36:51.794Z,100491.22
2022-08-26T00:39:20.726Z,100483.22
2022-08-26T00:41:50.182Z,100487.66
2022-08-26T00:44:19.667Z,100488.03
2022-08-26T00:47:01.424Z,100475.13
2022-08-26T00:49:47.588Z,100471.97
2022-08-26T00:52:20.023Z,100471.22
2022-08-26T00:55:02.695Z,100472.41
2022-08-26T00:57:32.328Z,100473.28
2022-08-26T01:00:02.150Z,100470.47
2022-08-26T01:02:31.370Z,100480.06
2022-08-26T01:05:01.596Z,100476.06
2022-08-26T01:07:32.622Z,100466.81
2022-08-26T01:10:09.370Z,100466.41
2022-08-26T01:12:43.031Z,100470.03
2022-08-26T01:15:15.559Z,100464.88
2022-08-26T01:17:43.913Z,100468.03
2022-08-26T01:20:19.453Z,100455.59
2022-08-26T01:23:03.264Z,100451.97
2022-08-26T01:25:33.442Z,100448.81
2022-08-26T01:28:06.636Z,100448.03
2022-08-26T01:30:36.586Z,100445.97
2022-08-26T01:33:11.151Z,100441.94
2022-08-26T01:35:40.320Z,100434.38
2022-08-26T01:38:11.594Z,100441.19
2022-08-26T01:40:43.143Z,100447.63
2022-08-26T01:43:17.651Z,100436.38
2022-08-26T01:45:48.389Z,100442.75
2022-08-26T01:48:21.185Z,100435.16
2022-08-26T01:50:49.656Z,100435.91
2022-08-26T01:53:19.988Z,100442.38
2022-08-26T01:55:53.332Z,100436.31
2022-08-26T01:58:43.576Z,100442.31
2022-08-26T02:01:12.210Z,100438.72
2022-08-26T02:03:51.569Z,100443.19
2022-08-26T02:06:19.984Z,100440.00
2022-08-26T02:08:50.901Z,100442.81
2022-08-26T02:11:19.172Z,100438.03
2022-08-26T02:13:55.745Z,100440.81
2022-08-26T02:16:26.244Z,100447.56
2022-08-26T02:18:55.667Z,100443.13
2022-08-26T02:21:24.950Z,100445.94
2022-08-26T02:23:56.241Z,100436.31
2022-08-26T02:26:28.196Z,100434.72
2022-08-26T02:29:16.486Z,100439.88
2022-08-26T02:31:44.503Z,100436.28
2022-08-26T02:34:15.793Z,100432.66
2022-08-26T02:36:43.829Z,100437.03
2022-08-26T02:39:13.633Z,100431.31
2022-08-26T02:41:45.316Z,100430.09
2022-08-26T02:44:13.353Z,100434.47
2022-08-26T02:46:41.828Z,100428.38
2022-08-26T02:49:17.103Z,100425.94
2022-08-26T02:51:45.714Z,100423.13
2022-08-26T02:54:14.062Z,100425.09
2022-08-26T02:56:42.388Z,100423.50
2022-08-26T02:59:12.750Z,100423.91
2022-08-26T03:01:40.953Z,100411.47
2022-08-26T03:04:12.276Z,100417.84
2022-08-26T03:06:41.426Z,100407.81
2022-08-26T03:09:10.237Z,100412.19
2022-08-26T03:11:47.314Z,100407.81
2022-08-26T03:14:15.351Z,100413.81
2022-08-26T03:16:43.757Z,100415.03
2022-08-26T03:19:18.240Z,100408.56
2022-08-26T03:21:47.600Z,100408.19
2022-08-26T03:24:15.768Z,100405.00
2022-08-26T03:26:52.559Z,100402.59
2022-08-26T03:29:40.236Z,100401.00
2022-08-26T03:32:08.685Z,100395.78
2022-08-26T03:34:37.344Z,100400.19
2022-08-26T03:37:06.610Z,100397.78
2022-08-26T03:39:34.992Z,100394.59
2022-08-26T03:42:02.925Z,100395.47
2022-08-26T03:44:31.672Z,100392.66
2022-08-26T03:47:00.641Z,100385.78
2022-08-26T03:49:31.473Z,100398.50
2022-08-26T03:52:00.327Z,100414.13
2022-08-26T03:54:28.146Z,100402.88
2022-08-26T03:56:56.027Z,100399.59
2022-08-26T03:59:25.089Z,100404.81
2022-08-26T04:01:52.978Z,100399.94
2022-08-26T04:04:22.758Z,100398.38
2022-08-26T04:06:58.523Z,100403.53
2022-08-26T04:09:27.781Z,100406.25
2022-08-26T04:11:56.120Z,100402.75
2022-08-26T04:14:27.081Z,100403.97
2022-08-26T04:16:56.467Z,100398.59
2022-08-26T04:19:25.854Z,100402.16
2022-08-26T04:21:54.246Z,100400.16
2022-08-26T04:24:24.708Z,100400.97
2022-08-26T04:26:52.937Z,100401.38
2022-08-26T04:29:24.408Z,100391.19
2022-08-26T04:31:55.867Z,100398.03
2022-08-26T04:34:28.324Z,100402.91
2022-08-26T04:36:58.162Z,100399.81
2022-08-26T04:39:27.574Z,100402.22
2022-08-26T04:41:57.833Z,100399.72
2022-08-26T04:44:28.749Z,100401.44
2022-08-26T04:46:57.531Z,100407.03
2022-08-26T04:49:27.596Z,100404.56
2022-08-26T04:51:55.869Z,100406.25
2022-08-26T04:54:25.122Z,100405.88
2022-08-26T04:56:53.220Z,100415.41
2022-08-26T04:59:21.335Z,100400.16
2022-08-26T05:01:52.224Z,100399.75
2022-08-26T05:04:21.297Z,100407.72
2022-08-26T05:06:50.799Z,100404.97
2022-08-26T05:09:20.265Z,100399.72
2022-08-26T05:11:52.151Z,100405.81
2022-08-26T05:14:23.379Z,100399.00
2022-08-26T05:16:52.430Z,100402.34
2022-08-26T05:19:21.067Z,100408.34
2022-08-26T05:21:49.447Z,100408.25
2022-08-26T05:24:18.266Z,100413.94
2022-08-26T05:26:46.895Z,100417.97
2022-08-26T05:29:14.695Z,100420.41
2022-08-26T05:31:43.230Z,100424.41
2022-08-26T05:34:11.113Z,100424.84
2022-08-26T05:36:40.273Z,100426.81
2022-08-26T05:39:10.648Z,100420.81
2022-08-26T05:41:41.342Z,100421.22
2022-08-26T05:44:14.013Z,100420.00
2022-08-26T05:46:44.875Z,100428.00
2022-08-26T05:49:14.712Z,100432.44
2022-08-26T05:51:47.530Z,100426.84
2022-08-26T05:54:21.341Z,100426.03
2022-08-26T05:56:52.195Z,100430.84
2022-08-26T05:59:23.898Z,100428.84
2022-08-26T06:01:54.987Z,100426.03
2022-08-26T06:04:27.006Z,100431.63
2022-08-26T06:06:55.920Z,100435.25
2022-08-26T06:09:24.319Z,100441.28
2022-08-26T06:11:52.138Z,100441.28
2022-08-26T06:14:21.643Z,100444.47
2022-08-26T06:16:49.943Z,100446.47
2022-08-26T06:19:18.076Z,100451.31
2022-08-26T06:21:47.988Z,100450.47
2022-08-26T06:24:41.336Z,100447.22
2022-08-26T06:27:13.891Z,100449.97
2022-08-26T06:29:43.373Z,100448.75
2022-08-26T06:32:12.110Z,100454.38
2022-08-26T06:34:40.236Z,100460.03
2022-08-26T06:37:08.964Z,100454.31
2022-08-26T06:39:41.038Z,100451.41
2022-08-26T06:42:10.869Z,100457.81
2022-08-26T06:44:39.041Z,100456.97
2022-08-26T06:47:09.129Z,100466.94
2022-08-26T06:49:37.444Z,100461.66
2022-08-26T06:52:05.270Z,100453.69
2022-08-26T06:54:33.112Z,100448.38
2022-08-26T06:57:01.285Z,100443.06
2022-08-26T06:59:31.303Z,100443.16
2022-08-26T07:02:09.859Z,100448.38
2022-08-26T07:04:42.085Z,100451.09
2022-08-26T07:07:14.430Z,100447.66
2022-08-26T07:09:42.281Z,100453.03
2022-08-26T07:12:10.647Z,100451.00
2022-08-26T07:14:39.308Z,100459.88
2022-08-26T07:17:09.252Z,100450.28
2022-08-26T07:19:40.042Z,100461.47
2022-08-26T07:22:08.626Z,100460.97
2022-08-26T07:24:43.108Z,100458.94
2022-08-26T07:27:14.468Z,100468.72
2022-08-26T07:29:43.742Z,100461.91
2022-08-26T07:32:14.895Z,100457.41
2022-08-26T07:34:43.624Z,100460.78
2022-08-26T07:37:11.591Z,100459.09
2022-08-26T07:39:41.779Z,100467.09
2022-08-26T07:42:14.164Z,100466.78
2022-08-26T07:44:43.268Z,100458.47
2022-08-26T07:47:25.703Z,100464.41
2022-08-26T07:49:56.288Z,100467.06
2022-08-26T07:52:27.536Z,100465.09
2022-08-26T07:54:58.380Z,100460.69
2022-08-26T07:57:27.904Z,100469.16
2022-08-26T07:59:56.665Z,100464.03
2022-08-26T08:02:26.080Z,100468.06
2022-08-26T08:04:55.391Z,100460.25
2022-08-26T08:07:25.813Z,100461.16
2022-08-26T08:10:11.316Z,100457.91
2022-08-26T08:12:41.118Z,100463.44
2022-08-26T08:15:12.314Z,100453.78
2022-08-26T08:17:43.516Z,100448.06
2022-08-26T08:20:14.121Z,100459.13
2022-08-26T08:22:43.094Z,100455.41
2022-08-26T08:25:12.213Z,100454.16
2022-08-26T08:27:45.213Z,100459.28
2022-08-26T08:30:14.915Z,100456.53
2022-08-26T08:32:48.942Z,100458.38
2022-08-26T08:35:18.823Z,100454.00
2022-08-26T08:37:46.939Z,100455.25
2022-08-26T08:40:18.812Z,100454.00
2022-08-26T08:43:01.669Z,100445.31
2022-08-26T08:45:37.254Z,100449.38
2022-08-26T08:48:27.328Z,100449.78
2022-08-26T08:51:04.424Z,100441.66
2022-08-26T08:53:33.025Z,100444.41
2022-08-26T08:56:23.710Z,100438.19
2022-08-26T08:58:56.723Z,100442.50
2022-08-26T09:01:43.236Z,100442.78
2022-08-26T09:04:38.977Z,100438.13
2022-08-26T09:07:12.102Z,100430.94
2022-08-26T09:09:46.285Z,100427.19
2022-08-26T09:12:20.759Z,100431.13
2022-08-26T09:15:17.307Z,100427.97
2022-08-26T09:18:24.930Z,100421.50
2022-08-26T09:21:00.440Z,100428.56
2022-08-26T09:23:30.346Z,100417.22
2022-08-26T09:26:29.255Z,100425.41
2022-08-26T09:28:59.290Z,100421.59
2022-08-26T09:31:36.526Z,100423.13
2022-08-26T09:34:12.008Z,100424.41
2022-08-26T09:36:56.028Z,100418.34
2022-08-26T09:39:33.602Z,100411.22
2022-08-26T09:42:05.634Z,100408.09
2022-08-26T09:44:35.691Z,100410.59
2022-08-26T09:47:07.502Z,100407.41
2022-08-26T09:49:41.108Z,100406.50
2022-08-26T09:52:17.697Z,100404.63
2022-08-26T09:54:58.259Z,100407.06
2022-08-26T09:57:29.766Z,100400.66
2022-08-26T09:59:57.612Z,100397.34
2022-08-26T10:02:34.423Z,100400.56
2022-08-26T10:05:09.523Z,100402.03
2022-08-26T10:07:38.903Z,100395.19
2022-08-26T10:10:22.823Z,100392.81
2022-08-26T10:12:59.169Z,100391.34
2022-08-26T10:15:28.368Z,100385.63
2022-08-26T10:18:06.626Z,100377.81
2022-08-26T10:20:42.154Z,100385.00
2022-08-26T10:23:18.147Z,100387.91
2022-08-26T10:25:48.110Z,100382.13
2022-08-26T10:28:44.403Z,100368.63
2022-08-26T10:31:28.147Z,100369.00
2022-08-26T10:34:00.468Z,100371.72
2022-08-26T10:40:07.681Z,100365.84
2022-08-26T10:42:35.569Z,100366.06
2022-08-26T10:45:15.067Z,100363.75
2022-08-26T10:47:55.982Z,100361.34
2022-08-26T10:50:30.948Z,100351.97
2022-08-26T10:53:07.655Z,100352.34
2022-08-26T10:55:43.267Z,100358.16
2022-08-26T10:58:47.053Z,100359.44
2022-08-26T11:01:43.323Z,100357.97
2022-08-26T11:04:29.189Z,100348.47
2022-08-26T11:07:35.189Z,100342.75
2022-08-26T11:10:17.047Z,100345.28
2022-08-26T11:12:49.223Z,100335.50
2022-08-26T11:15:24.398Z,100336.78
2022-08-26T11:17:52.569Z,100339.31
2022-08-26T11:20:23.893Z,100338.00
2022-08-26T11:22:54.849Z,100337.97
2022-08-26T11:25:29.628Z,100340.56
2022-08-26T11:28:00.559Z,100335.31
2022-08-26T11:30:42.964Z,100333.09
2022-08-26T11:33:51.046Z,100328.63
2022-08-26T11:36:46.788Z,100330.28
2022-08-26T11:39:29.543Z,100328.03
2022-08-26T11:42:16.434Z,100325.53
2022-08-26T11:44:49.868Z,100321.34
2022-08-26T11:47:31.553Z,100319.97
2022-08-26T11:50:10.119Z,100310.13
2022-08-26T11:52:38.837Z,100313.97
2022-08-26T11:55:11.825Z,100314.41
2022-08-26T11:57:53.302Z,100312.91
2022-08-26T12:00:24.507Z,100303.19
2022-08-26T12:02:53.461Z,100296.56
2022-08-26T12:05:29.592Z,100293.38
2022-08-26T12:08:12.324Z,100294.09
2022-08-26T12:10:40.481Z,100280.78
2022-08-26T12:13:09.302Z,100285.19
2022-08-26T12:15:37.110Z,100285.41
2022-08-26T12:18:29.649Z,100284.75
2022-08-26T12:21:12.404Z,100273.75
2022-08-26T12:23:49.918Z,100271.81
2022-08-26T12:26:25.776Z,100271.59
2022-08-26T12:29:26.676Z,100269.28
2022-08-26T12:32:14.474Z,100257.38
2022-08-26T12:34:55.923Z,100262.69
2022-08-26T12:37:44.557Z,100262.31
2022-08-26T12:40:41.920Z,100251.88
2022-08-26T12:43:16.459Z,100253.41
2022-08-26T12:46:07.330Z,100242.59
2022-08-26T12:48:55.484Z,100244.69
2022-08-26T12:51:28.577Z,100241.84
2022-08-26T12:54:07.623Z,100234.13
2022-08-26T12:56:43.771Z,100230.75
2022-08-26T12:59:27.411Z,100228.13
2022-08-26T13:01:58.359Z,100220.84
2022-08-26T13:04:47.415Z,100211.84
2022-08-26T13:07:28.913Z,100222.50
2022-08-26T13:10:07.644Z,100214.69
2022-08-26T13:12:44.484Z,100225.09
2022-08-26T13:15:28.019Z,100211.38
2022-08-26T13:18:03.967Z,100200.69
2022-08-26T13:20:35.087Z,100196.78
2022-08-26T13:23:18.385Z,100194.84
2022-08-26T13:26:18.984Z,100197.84
2022-08-26T13:29:01.703Z,100196.09
2022-08-26T13:31:36.357Z,100195.72
2022-08-26T13:34:11.143Z,100183.00
2022-08-26T13:36:48.350Z,100181.56
2022-08-26T13:39:20.693Z,100190.81
2022-08-26T13:41:52.610Z,100183.97
2022-08-26T13:44:32.128Z,100179.25
2022-08-26T13:47:02.798Z,100181.13
2022-08-26T13:49:40.365Z,100176.31
2022-08-26T13:52:25.526Z,100173.69
2022-08-26T13:55:03.233Z,100171.41
2022-08-26T13:57:35.794Z,100170.13
2022-08-26T14:00:11.542Z,100161.88
2022-08-26T14:02:42.559Z,100162.41
2022-08-26T14:05:14.300Z,100154.63
2022-08-26T14:07:47.997Z,100154.22
2022-08-26T14:10:19.681Z,100158.00
2022-08-26T14:12:55.375Z,100155.75
2022-08-26T14:15:33.318Z,100155.50
2022-08-26T14:18:07.758Z,100151.25
2022-08-26T14:20:50.813Z,100147.38
2022-08-26T14:23:22.093Z,100156.53
2022-08-26T14:25:54.305Z,100149.59
2022-08-26T14:31:03.496Z,100145.47
2022-08-26T14:33:39.478Z,100144.28
2022-08-26T14:36:28.706Z,100144.13
2022-08-26T14:39:08.398Z,100143.66
2022-08-26T14:41:54.305Z,100143.53
2022-08-26T14:44:40.258Z,100140.53
2022-08-26T14:47:10.864Z,100138.22
2022-08-26T14:49:49.935Z,100133.53
2022-08-26T14:52:19.870Z,100131.66
2022-08-26T14:54:49.065Z,100127.16
2022-08-26T14:57:27.792Z,100126.41
2022-08-26T14:59:58.885Z,100123.81
2022-08-26T15:02:33.266Z,100119.50
2022-08-26T15:05:09.224Z,100122.75
2022-08-26T15:07:47.736Z,100117.78
2022-08-26T15:10:18.928Z,100118.34
2022-08-26T15:12:51.102Z,100123.56
2022-08-26T15:15:26.010Z,100118.59
2022-08-26T15:17:55.380Z,100122.66
2022-08-26T15:20:26.206Z,100119.91
2022-08-26T15:22:54.054Z,100122.66
2022-08-26T15:25:22.517Z,100126.91
2022-08-26T15:27:50.514Z,100121.38
2022-08-26T15:30:18.568Z,100124.19
2022-08-26T15:32:47.634Z,100132.25
2022-08-26T15:35:15.549Z,100126.00
2022-08-26T15:37:43.401Z,100126.97
2022-08-26T15:40:11.694Z,100123.38
2022-08-26T15:42:39.626Z,100130.75
2022-08-26T15:45:10.849Z,100129.69
2022-08-26T15:48:01.299Z,100128.28
2022-08-26T15:50:39.495Z,100128.78
2022-08-26T15:53:13.174Z,100122.78
2022-08-26T15:55:41.139Z,100136.84
2022-08-26T15:58:12.328Z,100126.16
2022-08-26T16:00:42.213Z,100134.88
2022-08-26T16:03:10.211Z,100125.06
2022-08-26T16:05:49.430Z,100126.16
2022-08-26T16:08:17.833Z,100128.22
2022-08-26T16:10:50.287Z,100129.91
2022-08-26T16:13:20.479Z,100130.88
2022-08-26T16:15:49.120Z,100136.78
2022-08-26T16:18:17.343Z,100127.81
2022-08-26T16:21:01.560Z,100127.72
2022-08-26T16:23:38.970Z,100141.38
2022-08-26T16:26:11.437Z,100139.13
2022-08-26T16:28:39.557Z,100142.50
2022-08-26T16:31:09.671Z,100129.63
2022-08-26T16:33:38.063Z,100131.69
2022-08-26T16:36:07.659Z,100128.06
2022-08-26T16:38:37.762Z,100137.47
2022-08-26T16:41:07.162Z,100132.69
2022-08-26T16:43:35.623Z,100129.13
2022-08-26T16:46:06.884Z,100133.94
2022-08-26T16:48:35.472Z,100125.78
2022-08-26T16:51:03.572Z,100130.47
2022-08-26T16:53:31.674Z,100132.06
2022-08-26T16:56:00.670Z,100127.53
2022-08-26T16:58:29.016Z,100132.59
2022-08-26T17:00:57.687Z,100129.97
2022-08-26T17:03:26.368Z,100131.63
2022-08-26T17:05:54.164Z,100129.72
2022-08-26T17:08:28.383Z,100123.94
2022-08-26T17:11:00.806Z,100118.53
2022-08-26T17:13:35.762Z,100116.94
2022-08-26T17:16:07.674Z,100119.16
2022-08-26T17:18:37.163Z,100116.09
2022-08-26T17:21:09.569Z,100130.69
2022-08-26T17:23:38.841Z,100119.63
2022-08-26T17:26:07.082Z,100135.91
2022-08-26T17:28:35.008Z,100130.69
2022-08-26T17:31:06.190Z,100129.75
2022-08-26T17:33:34.922Z,100133.63
2022-08-26T17:36:03.120Z,100134.44
2022-08-26T17:38:30.987Z,100133.28
2022-08-26T17:40:59.121Z,100137.38
2022-08-26T17:43:27.023Z,100127.63
2022-08-26T17:46:04.701Z,100129.41
2022-08-26T17:48:39.927Z,100133.06
2022-08-26T17:51:17.049Z,100122.75
2022-08-26T17:53:46.027Z,100122.75
2022-08-26T17:56:17.094Z,100121.16
2022-08-26T17:58:51.377Z,100113.63
2022-08-26T18:01:26.122Z,100117.00
2022-08-26T18:04:00.078Z,100131.13
2022-08-26T18:06:30.536Z,100130.06
2022-08-26T18:08:59.502Z,100125.84
2022-08-26T18:11:28.494Z,100128.38
2022-08-26T18:13:56.310Z,100118.91
2022-08-26T18:16:24.618Z,100118.53
2022-08-26T18:18:53.576Z,100119.47
2022-08-26T18:21:27.937Z,100123.13
2022-08-26T18:23:56.480Z,100125.56
2022-08-26T18:26:30.463Z,100132.81
2022-08-26T18:28:59.151Z,100127.56
2022-08-26T18:31:27.558Z,100129.81
2022-08-26T18:33:55.500Z,100125.72
2022-08-26T18:36:27.306Z,100130.81
2022-08-26T18:38:55.787Z,100135.22
2022-08-26T18:41:26.062Z,100132.09
2022-08-26T18:43:54.259Z,100137.72
2022-08-26T18:46:25.515Z,100133.75
2022-08-26T18:48:59.276Z,100128.41
2022-08-26T18:51:45.672Z,100133.75
2022-08-26T18:54:15.606Z,100126.16
2022-08-26T18:56:43.979Z,100136.00
2022-08-26T18:59:14.110Z,100135.34
2022-08-26T19:01:42.900Z,100129.97
2022-08-26T19:04:14.760Z,100137.72
2022-08-26T19:06:46.879Z,100138.91
2022-08-26T19:09:17.967Z,100142.53
2022-08-26T19:11:47.038Z,100142.22
2022-08-26T19:14:18.958Z,100133.44
2022-08-26T19:17:19.091Z,100133.00
2022-08-26T19:19:50.798Z,100138.09
2022-08-26T19:22:27.742Z,100141.34
2022-08-26T19:24:55.660Z,100149.72
2022-08-26T19:27:28.818Z,100146.69
2022-08-26T19:29:57.984Z,100147.88
2022-08-26T19:32:26.092Z,100154.41
2022-08-26T19:34:54.080Z,100153.84
2022-08-26T19:37:22.153Z,100143.25
2022-08-26T19:39:51.228Z,100159.75
2022-08-26T19:42:19.697Z,100169.56
2022-08-26T19:45:05.880Z,100160.63
2022-08-26T19:47:37.114Z,100158.78
2022-08-26T19:50:08.116Z,100154.66
2022-08-26T19:52:38.640Z,100152.88
2022-08-26T19:55:09.443Z,100152.34
2022-08-26T19:57:40.074Z,100156.19
2022-08-26T20:00:15.816Z,100150.25
2022-08-26T20:02:44.564Z,100155.97
2022-08-26T20:05:13.965Z,100151.97
2022-08-26T20:07:42.518Z,100148.72
2022-08-26T20:10:13.691Z,100153.06
2022-08-26T20:12:42.617Z,100147.13
2022-08-26T20:15:13.250Z,100151.94
2022-08-26T20:17:41.177Z,100157.63
2022-08-26T20:20:33.219Z,100145.72
2022-08-26T20:23:04.496Z,100158.97
2022-08-26T20:25:33.938Z,100160.28
2022-08-26T20:28:02.129Z,100155.59
2022-08-26T20:30:30.410Z,100151.69
2022-08-26T20:32:58.702Z,100150.41
2022-08-26T20:35:26.781Z,100148.38
2022-08-26T20:37:54.738Z,100162.09
2022-08-26T20:40:23.833Z,100160.59
2022-08-26T20:42:51.767Z,100151.41
2022-08-26T20:45:19.912Z,100154.31
2022-08-26T20:47:47.871Z,100155.13
2022-08-26T20:50:15.881Z,100154.50
2022-08-26T20:52:43.837Z,100164.91
2022-08-26T20:55:14.663Z,100165.38
2022-08-26T20:57:44.477Z,100169.44
2022-08-26T21:00:16.051Z,100167.41
2022-08-26T21:02:46.541Z,100171.03
2022-08-26T21:05:17.219Z,100176.19
2022-08-26T21:07:45.979Z,100176.63
2022-08-26T21:10:15.706Z,100174.69
2022-08-26T21:12:45.168Z,100177.06
2022-08-26T21:15:12.939Z,100173.09
2022-08-26T21:17:41.685Z,100179.59
2022-08-26T21:20:10.326Z,100174.03
2022-08-26T21:22:38.536Z,100174.41
2022-08-26T21:25:09.060Z,100183.66
2022-08-26T21:27:40.485Z,100183.72
2022-08-26T21:30:09.372Z,100176.06
2022-08-26T21:32:37.343Z,100175.66
2022-08-26T21:35:05.584Z,100189.00
2022-08-26T21:37:33.780Z,100176.94
2022-08-26T21:40:02.231Z,100171.63
2022-08-26T21:42:34.243Z,100178.84
2022-08-26T21:45:03.787Z,100182.09
2022-08-26T21:47:32.775Z,100172.47
2022-08-26T21:50:03.781Z,100170.94
2022-08-26T21:52:35.427Z,100160.91
2022-08-26T21:55:08.794Z,100164.91
2022-08-26T21:57:37.028Z,100165.00
2022-08-26T22:00:09.825Z,100159.75
2022-08-26T22:02:38.545Z,100162.59
2022-08-26T22:05:07.290Z,100161.81
2022-08-26T22:07:35.294Z,100154.19
2022-08-26T22:10:04.996Z,100156.59
2022-08-26T22:12:33.203Z,100158.25
2022-08-26T22:15:02.417Z,100147.38
2022-08-26T22:17:31.052Z,100159.84
2022-08-26T22:19:58.858Z,100143.78
2022-08-26T22:22:28.730Z,100158.66
2022-08-26T22:24:56.573Z,100155.00
2022-08-26T22:27:24.446Z,100155.41
2022-08-26T22:29:52.837Z,100155.84
2022-08-26T22:32:20.631Z,100155.88
2022-08-26T22:34:48.689Z,100152.66
2022-08-26T22:37:16.512Z,100140.63
2022-08-26T22:39:44.777Z,100146.66
2022-08-26T22:42:12.832Z,100150.25
2022-08-26T22:44:41.328Z,100149.47
2022-08-26T22:47:17.335Z,100151.47
2022-08-26T22:50:06.795Z,100156.72
2022-08-26T22:52:36.683Z,100158.31
2022-08-26T22:55:05.173Z,100157.50
2022-08-26T22:57:33.249Z,100152.72
2022-08-26T23:00:01.008Z,100159.53
2022-08-26T23:02:28.982Z,100159.53
2022-08-26T23:04:56.905Z,100164.31
2022-08-26T23:07:24.667Z,100167.59
2022-08-26T23:09:52.392Z,100172.84
2022-08-26T23:12:20.247Z,100166.81
2022-08-26T23:14:49.044Z,100168.81
2022-08-26T23:17:16.865Z,100158.34
2022-08-26T23:19:44.726Z,100160.34
2022-08-26T23:22:12.599Z,100155.13
2022-08-26T23:24:40.667Z,100153.53
2022-08-26T23:27:08.517Z,100158.34
2022-08-26T23:29:36.844Z,100148.75
2022-08-26T23:32:05.012Z,100156.41
2022-08-26T23:34:51.446Z,100157.59
2022-08-26T23:37:19.770Z,100164.00
2022-08-26T23:39:48.972Z,100160.75
2022-08-26T23:42:16.798Z,100162.72
2022-08-26T23:44:44.687Z,100165.94
2022-08-26T23:47:13.587Z,100159.56
2022-08-26T23:49:41.983Z,100161.16
2022-08-26T23:52:28.984Z,100164.00
2022-08-26T23:54:56.922Z,100159.19
2022-08-26T23:57:25.713Z,100165.22
2022-08-26T23:59:53.680Z,100168.03
